sensor_id;sensor_type;location;lat;lon;timestamp;P1;durP1;ratioP1;P2;durP2;ratioP2
77226;SDS011;66234;47.642;19.144;2023-01-01T00:02:32;433.48;;;186.25;;
77226;SDS011;66234;47.642;19.144;2023-01-01T00:05:38;424.23;;;190.43;;
77226;SDS011;66234;47.642;19.144;2023-01-01T00:08:40;382.70;;;162.43;;
77226;SDS011;66234;47.642;19.144;2023-01-01T00:11:43;328.50;;;144.85;;
77226;SDS011;66234;47.642;19.144;2023-01-01T00:14:45;307.77;;;137.23;;
77226;SDS011;66234;47.642;19.144;2023-01-01T00:17:48;338.25;;;132.50;;
77226;SDS011;66234;47.642;19.144;2023-01-01T00:20:50;229.37;;;102.60;;
77226;SDS011;66234;47.642;19.144;2023-01-01T00:23:53;281.70;;;100.43;;
77226;SDS011;66234;47.642;19.144;2023-01-01T00:26:55;288.48;;;88.28;;
77226;SDS011;66234;47.642;19.144;2023-01-01T00:29:59;244.82;;;88.28;;
77226;SDS011;66234;47.642;19.144;2023-01-01T00:33:01;227.85;;;76.10;;
77226;SDS011;66234;47.642;19.144;2023-01-01T00:36:07;222.20;;;72.27;;
77226;SDS011;66234;47.642;19.144;2023-01-01T00:39:15;235.77;;;79.55;;
77226;SDS011;66234;47.642;19.144;2023-01-01T00:42:17;307.20;;;88.45;;
77226;SDS011;66234;47.642;19.144;2023-01-01T00:45:20;354.30;;;87.13;;
77226;SDS011;66234;47.642;19.144;2023-01-01T00:48:24;334.02;;;92.18;;
77226;SDS011;66234;47.642;19.144;2023-01-01T00:51:27;323.20;;;85.60;;
77226;SDS011;66234;47.642;19.144;2023-01-01T00:54:37;278.98;;;77.07;;
77226;SDS011;66234;47.642;19.144;2023-01-01T00:57:40;176.18;;;64.80;;
77226;SDS011;66234;47.642;19.144;2023-01-01T01:00:43;306.10;;;75.97;;
77226;SDS011;66234;47.642;19.144;2023-01-01T01:03:46;362.97;;;81.53;;
77226;SDS011;66234;47.642;19.144;2023-01-01T01:06:48;235.20;;;71.90;;
77226;SDS011;66234;47.642;19.144;2023-01-01T01:09:51;292.30;;;76.80;;
77226;SDS011;66234;47.642;19.144;2023-01-01T01:12:54;312.15;;;74.78;;
77226;SDS011;66234;47.642;19.144;2023-01-01T01:15:56;327.92;;;75.88;;
77226;SDS011;66234;47.642;19.144;2023-01-01T01:19:00;251.73;;;70.60;;
77226;SDS011;66234;47.642;19.144;2023-01-01T01:22:03;194.63;;;66.82;;
77226;SDS011;66234;47.642;19.144;2023-01-01T01:25:06;223.05;;;62.60;;
77226;SDS011;66234;47.642;19.144;2023-01-01T01:28:10;216.85;;;61.38;;
77226;SDS011;66234;47.642;19.144;2023-01-01T01:31:12;184.82;;;54.35;;
77226;SDS011;66234;47.642;19.144;2023-01-01T01:34:15;204.23;;;54.83;;
77226;SDS011;66234;47.642;19.144;2023-01-01T01:37:25;150.13;;;48.05;;
77226;SDS011;66234;47.642;19.144;2023-01-01T01:40:29;133.10;;;43.10;;
77226;SDS011;66234;47.642;19.144;2023-01-01T01:46:35;118.05;;;43.92;;
77226;SDS011;66234;47.642;19.144;2023-01-01T01:49:42;98.73;;;44.20;;
77226;SDS011;66234;47.642;19.144;2023-01-01T01:55:58;103.85;;;45.78;;
77226;SDS011;66234;47.642;19.144;2023-01-01T01:59:04;105.18;;;43.95;;
77226;SDS011;66234;47.642;19.144;2023-01-01T02:02:11;121.25;;;48.38;;
77226;SDS011;66234;47.642;19.144;2023-01-01T02:05:21;114.27;;;46.07;;
77226;SDS011;66234;47.642;19.144;2023-01-01T02:08:25;99.88;;;47.00;;
77226;SDS011;66234;47.642;19.144;2023-01-01T02:11:28;104.78;;;49.42;;
77226;SDS011;66234;47.642;19.144;2023-01-01T02:14:30;105.57;;;47.80;;
77226;SDS011;66234;47.642;19.144;2023-01-01T02:17:39;118.32;;;45.75;;
77226;SDS011;66234;47.642;19.144;2023-01-01T02:20:53;104.60;;;45.80;;
77226;SDS011;66234;47.642;19.144;2023-01-01T02:27:51;77.13;;;40.22;;
77226;SDS011;66234;47.642;19.144;2023-01-01T02:31:02;80.72;;;37.90;;
77226;SDS011;66234;47.642;19.144;2023-01-01T02:34:06;70.10;;;36.33;;
77226;SDS011;66234;47.642;19.144;2023-01-01T02:37:14;68.93;;;34.15;;
77226;SDS011;66234;47.642;19.144;2023-01-01T02:40:20;70.15;;;35.20;;
77226;SDS011;66234;47.642;19.144;2023-01-01T02:43:25;64.70;;;35.20;;
77226;SDS011;66234;47.642;19.144;2023-01-01T02:46:31;74.17;;;35.23;;
77226;SDS011;66234;47.642;19.144;2023-01-01T02:49:40;72.77;;;34.47;;
77226;SDS011;66234;47.642;19.144;2023-01-01T02:56:10;124.10;;;40.75;;
77226;SDS011;66234;47.642;19.144;2023-01-01T03:13:02;94.15;;;38.40;;
77226;SDS011;66234;47.642;19.144;2023-01-01T03:16:14;112.47;;;36.78;;
77226;SDS011;66234;47.642;19.144;2023-01-01T03:19:24;130.60;;;38.97;;
77226;SDS011;66234;47.642;19.144;2023-01-01T03:22:32;111.15;;;39.13;;
77226;SDS011;66234;47.642;19.144;2023-01-01T03:25:42;113.90;;;39.00;;
77226;SDS011;66234;47.642;19.144;2023-01-01T03:28:54;109.25;;;36.33;;
77226;SDS011;66234;47.642;19.144;2023-01-01T03:31:59;115.18;;;40.20;;
77226;SDS011;66234;47.642;19.144;2023-01-01T03:35:04;106.20;;;38.97;;
77226;SDS011;66234;47.642;19.144;2023-01-01T03:38:28;123.10;;;38.15;;
77226;SDS011;66234;47.642;19.144;2023-01-01T03:41:55;106.93;;;36.17;;
77226;SDS011;66234;47.642;19.144;2023-01-01T03:45:21;101.78;;;37.00;;
77226;SDS011;66234;47.642;19.144;2023-01-01T03:48:31;114.97;;;36.20;;
77226;SDS011;66234;47.642;19.144;2023-01-01T03:55:21;101.60;;;35.97;;
77226;SDS011;66234;47.642;19.144;2023-01-01T03:58:34;98.05;;;34.88;;
77226;SDS011;66234;47.642;19.144;2023-01-01T04:01:48;99.63;;;35.03;;
77226;SDS011;66234;47.642;19.144;2023-01-01T04:04:54;96.43;;;33.80;;
77226;SDS011;66234;47.642;19.144;2023-01-01T04:08:01;104.90;;;34.00;;
77226;SDS011;66234;47.642;19.144;2023-01-01T04:11:09;106.65;;;33.53;;
77226;SDS011;66234;47.642;19.144;2023-01-01T04:14:38;91.38;;;31.38;;
77226;SDS011;66234;47.642;19.144;2023-01-01T04:17:42;114.18;;;34.17;;
77226;SDS011;66234;47.642;19.144;2023-01-01T04:20:45;110.17;;;33.33;;
77226;SDS011;66234;47.642;19.144;2023-01-01T04:23:48;103.07;;;33.25;;
77226;SDS011;66234;47.642;19.144;2023-01-01T04:26:51;107.60;;;36.58;;
77226;SDS011;66234;47.642;19.144;2023-01-01T04:29:54;117.20;;;35.72;;
77226;SDS011;66234;47.642;19.144;2023-01-01T04:32:57;147.10;;;36.17;;
77226;SDS011;66234;47.642;19.144;2023-01-01T04:36:08;161.70;;;37.97;;
77226;SDS011;66234;47.642;19.144;2023-01-01T04:39:11;145.60;;;36.30;;
77226;SDS011;66234;47.642;19.144;2023-01-01T04:42:14;163.57;;;35.00;;
77226;SDS011;66234;47.642;19.144;2023-01-01T04:45:16;176.52;;;36.22;;
77226;SDS011;66234;47.642;19.144;2023-01-01T04:48:19;190.90;;;38.03;;
77226;SDS011;66234;47.642;19.144;2023-01-01T04:51:21;181.77;;;34.20;;
77226;SDS011;66234;47.642;19.144;2023-01-01T04:54:24;191.38;;;35.92;;
77226;SDS011;66234;47.642;19.144;2023-01-01T04:57:30;127.90;;;31.27;;
77226;SDS011;66234;47.642;19.144;2023-01-01T05:00:33;72.68;;;28.23;;
77226;SDS011;66234;47.642;19.144;2023-01-01T05:03:36;74.97;;;29.23;;
77226;SDS011;66234;47.642;19.144;2023-01-01T05:06:38;60.47;;;26.87;;
77226;SDS011;66234;47.642;19.144;2023-01-01T05:09:41;58.72;;;28.20;;
77226;SDS011;66234;47.642;19.144;2023-01-01T05:12:43;97.47;;;34.92;;
77226;SDS011;66234;47.642;19.144;2023-01-01T05:15:46;57.53;;;27.65;;
77226;SDS011;66234;47.642;19.144;2023-01-01T05:18:50;59.17;;;28.52;;
77226;SDS011;66234;47.642;19.144;2023-01-01T05:21:54;54.13;;;25.87;;
77226;SDS011;66234;47.642;19.144;2023-01-01T05:24:56;49.05;;;25.75;;
77226;SDS011;66234;47.642;19.144;2023-01-01T05:27:59;48.60;;;28.20;;
77226;SDS011;66234;47.642;19.144;2023-01-01T05:31:09;66.93;;;28.48;;
77226;SDS011;66234;47.642;19.144;2023-01-01T05:34:14;62.03;;;30.55;;
77226;SDS011;66234;47.642;19.144;2023-01-01T05:37:16;68.80;;;29.93;;
77226;SDS011;66234;47.642;19.144;2023-01-01T05:40:19;77.53;;;32.05;;
77226;SDS011;66234;47.642;19.144;2023-01-01T05:43:23;76.70;;;35.72;;
77226;SDS011;66234;47.642;19.144;2023-01-01T05:46:26;71.22;;;31.63;;
77226;SDS011;66234;47.642;19.144;2023-01-01T05:49:28;66.15;;;31.25;;
77226;SDS011;66234;47.642;19.144;2023-01-01T05:52:31;63.80;;;25.47;;
77226;SDS011;66234;47.642;19.144;2023-01-01T05:55:34;50.42;;;25.77;;
77226;SDS011;66234;47.642;19.144;2023-01-01T05:58:36;59.50;;;27.02;;
77226;SDS011;66234;47.642;19.144;2023-01-01T06:01:39;54.65;;;25.38;;
77226;SDS011;66234;47.642;19.144;2023-01-01T06:04:47;52.63;;;24.42;;
77226;SDS011;66234;47.642;19.144;2023-01-01T06:07:49;45.67;;;24.73;;
77226;SDS011;66234;47.642;19.144;2023-01-01T06:10:56;55.97;;;24.27;;
77226;SDS011;66234;47.642;19.144;2023-01-01T06:14:00;50.38;;;24.50;;
77226;SDS011;66234;47.642;19.144;2023-01-01T06:17:02;49.40;;;25.67;;
77226;SDS011;66234;47.642;19.144;2023-01-01T06:20:05;62.35;;;28.02;;
77226;SDS011;66234;47.642;19.144;2023-01-01T06:23:08;57.33;;;28.30;;
77226;SDS011;66234;47.642;19.144;2023-01-01T06:26:12;51.70;;;26.90;;
77226;SDS011;66234;47.642;19.144;2023-01-01T06:29:18;43.30;;;24.08;;
77226;SDS011;66234;47.642;19.144;2023-01-01T06:32:21;41.73;;;23.50;;
77226;SDS011;66234;47.642;19.144;2023-01-01T06:35:23;51.90;;;23.93;;
77226;SDS011;66234;47.642;19.144;2023-01-01T06:38:26;44.85;;;25.42;;
77226;SDS011;66234;47.642;19.144;2023-01-01T06:41:29;60.22;;;24.70;;
77226;SDS011;66234;47.642;19.144;2023-01-01T06:44:32;62.88;;;26.15;;
77226;SDS011;66234;47.642;19.144;2023-01-01T06:47:34;53.07;;;25.30;;
77226;SDS011;66234;47.642;19.144;2023-01-01T06:50:40;63.85;;;27.10;;
77226;SDS011;66234;47.642;19.144;2023-01-01T06:53:43;67.30;;;26.65;;
77226;SDS011;66234;47.642;19.144;2023-01-01T06:56:45;60.22;;;26.48;;
77226;SDS011;66234;47.642;19.144;2023-01-01T06:59:48;94.33;;;27.93;;
77226;SDS011;66234;47.642;19.144;2023-01-01T07:02:50;80.23;;;29.00;;
77226;SDS011;66234;47.642;19.144;2023-01-01T07:05:53;74.80;;;26.42;;
77226;SDS011;66234;47.642;19.144;2023-01-01T07:08:56;67.18;;;26.98;;
77226;SDS011;66234;47.642;19.144;2023-01-01T07:11:58;76.10;;;24.73;;
77226;SDS011;66234;47.642;19.144;2023-01-01T07:15:01;65.30;;;24.47;;
77226;SDS011;66234;47.642;19.144;2023-01-01T07:18:05;64.10;;;24.92;;
77226;SDS011;66234;47.642;19.144;2023-01-01T07:21:21;65.50;;;26.08;;
77226;SDS011;66234;47.642;19.144;2023-01-01T07:24:30;59.05;;;26.25;;
77226;SDS011;66234;47.642;19.144;2023-01-01T07:27:33;58.17;;;25.10;;
77226;SDS011;66234;47.642;19.144;2023-01-01T07:30:35;66.07;;;27.27;;
77226;SDS011;66234;47.642;19.144;2023-01-01T07:33:38;43.50;;;23.27;;
77226;SDS011;66234;47.642;19.144;2023-01-01T07:36:41;54.25;;;26.15;;
77226;SDS011;66234;47.642;19.144;2023-01-01T07:39:45;62.00;;;24.77;;
77226;SDS011;66234;47.642;19.144;2023-01-01T07:42:47;43.67;;;23.73;;
77226;SDS011;66234;47.642;19.144;2023-01-01T07:45:50;50.00;;;23.47;;
77226;SDS011;66234;47.642;19.144;2023-01-01T07:48:53;48.15;;;24.65;;
77226;SDS011;66234;47.642;19.144;2023-01-01T07:51:55;47.03;;;25.92;;
77226;SDS011;66234;47.642;19.144;2023-01-01T07:54:58;55.63;;;25.05;;
77226;SDS011;66234;47.642;19.144;2023-01-01T07:58:00;56.97;;;25.42;;
77226;SDS011;66234;47.642;19.144;2023-01-01T08:01:03;62.83;;;26.50;;
77226;SDS011;66234;47.642;19.144;2023-01-01T08:04:06;54.70;;;25.05;;
77226;SDS011;66234;47.642;19.144;2023-01-01T08:07:09;54.70;;;27.10;;
77226;SDS011;66234;47.642;19.144;2023-01-01T08:10:13;72.25;;;29.02;;
77226;SDS011;66234;47.642;19.144;2023-01-01T08:13:17;53.50;;;26.57;;
77226;SDS011;66234;47.642;19.144;2023-01-01T08:16:20;62.17;;;26.40;;
77226;SDS011;66234;47.642;19.144;2023-01-01T08:19:22;60.72;;;23.70;;
77226;SDS011;66234;47.642;19.144;2023-01-01T08:22:25;43.92;;;23.38;;
77226;SDS011;66234;47.642;19.144;2023-01-01T08:25:27;40.38;;;23.25;;
77226;SDS011;66234;47.642;19.144;2023-01-01T08:28:30;43.87;;;21.80;;
77226;SDS011;66234;47.642;19.144;2023-01-01T08:31:33;36.17;;;21.97;;
77226;SDS011;66234;47.642;19.144;2023-01-01T08:34:35;48.70;;;28.13;;
77226;SDS011;66234;47.642;19.144;2023-01-01T08:37:38;37.72;;;22.77;;
77226;SDS011;66234;47.642;19.144;2023-01-01T08:40:41;44.47;;;25.45;;
77226;SDS011;66234;47.642;19.144;2023-01-01T08:43:43;36.27;;;21.00;;
77226;SDS011;66234;47.642;19.144;2023-01-01T08:46:46;30.80;;;20.43;;
77226;SDS011;66234;47.642;19.144;2023-01-01T08:49:49;40.42;;;23.92;;
77226;SDS011;66234;47.642;19.144;2023-01-01T08:52:51;31.08;;;21.40;;
77226;SDS011;66234;47.642;19.144;2023-01-01T08:55:55;31.10;;;19.83;;
77226;SDS011;66234;47.642;19.144;2023-01-01T08:59:02;31.73;;;19.87;;
77226;SDS011;66234;47.642;19.144;2023-01-01T09:02:05;31.93;;;18.53;;
77226;SDS011;66234;47.642;19.144;2023-01-01T09:05:09;46.30;;;25.17;;
77226;SDS011;66234;47.642;19.144;2023-01-01T09:08:12;42.58;;;23.77;;
77226;SDS011;66234;47.642;19.144;2023-01-01T09:11:27;32.85;;;20.33;;
77226;SDS011;66234;47.642;19.144;2023-01-01T09:14:31;36.23;;;21.57;;
77226;SDS011;66234;47.642;19.144;2023-01-01T09:17:34;28.43;;;18.40;;
77226;SDS011;66234;47.642;19.144;2023-01-01T09:20:40;37.15;;;22.60;;
77226;SDS011;66234;47.642;19.144;2023-01-01T09:23:42;28.88;;;18.27;;
77226;SDS011;66234;47.642;19.144;2023-01-01T09:26:45;27.90;;;17.30;;
77226;SDS011;66234;47.642;19.144;2023-01-01T09:29:48;25.20;;;15.97;;
77226;SDS011;66234;47.642;19.144;2023-01-01T09:32:50;30.50;;;18.33;;
77226;SDS011;66234;47.642;19.144;2023-01-01T09:35:53;28.60;;;18.05;;
77226;SDS011;66234;47.642;19.144;2023-01-01T09:38:56;31.35;;;19.40;;
77226;SDS011;66234;47.642;19.144;2023-01-01T09:42:05;29.92;;;18.20;;
77226;SDS011;66234;47.642;19.144;2023-01-01T09:45:27;27.23;;;16.87;;
77226;SDS011;66234;47.642;19.144;2023-01-01T09:48:32;26.33;;;16.80;;
77226;SDS011;66234;47.642;19.144;2023-01-01T09:51:39;24.88;;;17.08;;
77226;SDS011;66234;47.642;19.144;2023-01-01T09:54:56;29.38;;;19.60;;
77226;SDS011;66234;47.642;19.144;2023-01-01T09:58:03;31.88;;;18.85;;
77226;SDS011;66234;47.642;19.144;2023-01-01T10:07:48;29.65;;;20.05;;
77226;SDS011;66234;47.642;19.144;2023-01-01T10:17:34;24.30;;;14.93;;
77226;SDS011;66234;47.642;19.144;2023-01-01T10:20:44;25.90;;;16.50;;
77226;SDS011;66234;47.642;19.144;2023-01-01T10:24:36;26.65;;;17.70;;
77226;SDS011;66234;47.642;19.144;2023-01-01T10:27:40;27.23;;;16.80;;
77226;SDS011;66234;47.642;19.144;2023-01-01T10:30:46;25.33;;;16.70;;
77226;SDS011;66234;47.642;19.144;2023-01-01T10:33:49;25.10;;;13.67;;
77226;SDS011;66234;47.642;19.144;2023-01-01T10:36:52;31.37;;;17.23;;
77226;SDS011;66234;47.642;19.144;2023-01-01T10:39:59;24.45;;;16.83;;
77226;SDS011;66234;47.642;19.144;2023-01-01T10:43:14;30.20;;;18.38;;
77226;SDS011;66234;47.642;19.144;2023-01-01T10:46:18;25.75;;;16.48;;
77226;SDS011;66234;47.642;19.144;2023-01-01T10:49:33;28.60;;;18.30;;
77226;SDS011;66234;47.642;19.144;2023-01-01T10:52:37;38.70;;;21.17;;
77226;SDS011;66234;47.642;19.144;2023-01-01T10:55:42;29.25;;;17.02;;
77226;SDS011;66234;47.642;19.144;2023-01-01T10:58:51;25.33;;;15.52;;
77226;SDS011;66234;47.642;19.144;2023-01-01T11:02:13;25.60;;;16.67;;
77226;SDS011;66234;47.642;19.144;2023-01-01T11:05:22;24.00;;;15.33;;
77226;SDS011;66234;47.642;19.144;2023-01-01T11:08:24;21.30;;;14.23;;
77226;SDS011;66234;47.642;19.144;2023-01-01T11:11:30;25.42;;;16.92;;
77226;SDS011;66234;47.642;19.144;2023-01-01T11:14:50;27.77;;;16.23;;
77226;SDS011;66234;47.642;19.144;2023-01-01T11:18:01;28.77;;;16.48;;
77226;SDS011;66234;47.642;19.144;2023-01-01T11:21:07;26.07;;;15.73;;
77226;SDS011;66234;47.642;19.144;2023-01-01T11:27:24;23.73;;;14.68;;
77226;SDS011;66234;47.642;19.144;2023-01-01T11:30:28;24.30;;;14.45;;
77226;SDS011;66234;47.642;19.144;2023-01-01T11:33:31;21.85;;;14.18;;
77226;SDS011;66234;47.642;19.144;2023-01-01T11:36:37;22.60;;;15.53;;
77226;SDS011;66234;47.642;19.144;2023-01-01T11:39:40;27.27;;;16.10;;
77226;SDS011;66234;47.642;19.144;2023-01-01T11:42:49;27.60;;;16.85;;
77226;SDS011;66234;47.642;19.144;2023-01-01T11:45:59;28.38;;;18.73;;
77226;SDS011;66234;47.642;19.144;2023-01-01T11:49:13;26.95;;;16.73;;
77226;SDS011;66234;47.642;19.144;2023-01-01T11:52:36;26.40;;;14.73;;
77226;SDS011;66234;47.642;19.144;2023-01-01T11:55:41;23.87;;;14.57;;
77226;SDS011;66234;47.642;19.144;2023-01-01T11:58:51;20.38;;;12.13;;
77226;SDS011;66234;47.642;19.144;2023-01-01T12:02:01;25.85;;;15.55;;
77226;SDS011;66234;47.642;19.144;2023-01-01T12:08:44;30.77;;;18.27;;
77226;SDS011;66234;47.642;19.144;2023-01-01T12:11:57;34.50;;;15.97;;
77226;SDS011;66234;47.642;19.144;2023-01-01T12:15:25;35.83;;;18.52;;
77226;SDS011;66234;47.642;19.144;2023-01-01T12:22:08;34.20;;;14.88;;
77226;SDS011;66234;47.642;19.144;2023-01-01T12:25:18;26.57;;;15.20;;
77226;SDS011;66234;47.642;19.144;2023-01-01T12:31:51;23.02;;;14.40;;
77226;SDS011;66234;47.642;19.144;2023-01-01T12:35:43;27.27;;;15.40;;
77226;SDS011;66234;47.642;19.144;2023-01-01T12:42:01;32.27;;;18.60;;
77226;SDS011;66234;47.642;19.144;2023-01-01T13:02:22;54.77;;;24.60;;
77226;SDS011;66234;47.642;19.144;2023-01-01T13:05:35;48.97;;;24.13;;
77226;SDS011;66234;47.642;19.144;2023-01-01T13:08:40;36.20;;;19.25;;
77226;SDS011;66234;47.642;19.144;2023-01-01T13:11:45;40.05;;;19.15;;
77226;SDS011;66234;47.642;19.144;2023-01-01T13:14:52;60.03;;;27.90;;
77226;SDS011;66234;47.642;19.144;2023-01-01T13:17:54;64.50;;;28.60;;
77226;SDS011;66234;47.642;19.144;2023-01-01T13:21:03;47.42;;;21.20;;
77226;SDS011;66234;47.642;19.144;2023-01-01T13:24:25;46.55;;;21.23;;
77226;SDS011;66234;47.642;19.144;2023-01-01T13:30:59;29.90;;;15.20;;
77226;SDS011;66234;47.642;19.144;2023-01-01T13:37:49;29.70;;;15.90;;
77226;SDS011;66234;47.642;19.144;2023-01-01T13:40:51;37.92;;;19.25;;
77226;SDS011;66234;47.642;19.144;2023-01-01T13:47:27;31.73;;;15.63;;
77226;SDS011;66234;47.642;19.144;2023-01-01T13:50:43;39.97;;;19.70;;
77226;SDS011;66234;47.642;19.144;2023-01-01T14:04:13;32.07;;;17.03;;
77226;SDS011;66234;47.642;19.144;2023-01-01T14:07:38;33.93;;;17.80;;
77226;SDS011;66234;47.642;19.144;2023-01-01T14:10:54;35.22;;;18.10;;
77226;SDS011;66234;47.642;19.144;2023-01-01T14:13:58;48.75;;;24.63;;
77226;SDS011;66234;47.642;19.144;2023-01-01T14:17:01;53.42;;;26.67;;
77226;SDS011;66234;47.642;19.144;2023-01-01T14:20:12;49.90;;;25.73;;
77226;SDS011;66234;47.642;19.144;2023-01-01T14:23:34;38.90;;;22.43;;
77226;SDS011;66234;47.642;19.144;2023-01-01T14:26:40;33.65;;;18.33;;
77226;SDS011;66234;47.642;19.144;2023-01-01T14:29:43;33.25;;;18.17;;
77226;SDS011;66234;47.642;19.144;2023-01-01T14:32:56;43.63;;;22.52;;
77226;SDS011;66234;47.642;19.144;2023-01-01T14:36:00;40.73;;;20.33;;
77226;SDS011;66234;47.642;19.144;2023-01-01T14:39:18;40.77;;;21.50;;
77226;SDS011;66234;47.642;19.144;2023-01-01T14:42:29;67.00;;;33.75;;
77226;SDS011;66234;47.642;19.144;2023-01-01T14:45:33;54.45;;;30.48;;
77226;SDS011;66234;47.642;19.144;2023-01-01T14:48:41;44.05;;;24.33;;
77226;SDS011;66234;47.642;19.144;2023-01-01T14:51:48;34.53;;;19.73;;
77226;SDS011;66234;47.642;19.144;2023-01-01T14:54:57;27.23;;;16.57;;
77226;SDS011;66234;47.642;19.144;2023-01-01T14:58:01;33.08;;;18.90;;
77226;SDS011;66234;47.642;19.144;2023-01-01T15:01:19;29.20;;;16.77;;
77226;SDS011;66234;47.642;19.144;2023-01-01T15:04:25;30.15;;;16.38;;
77226;SDS011;66234;47.642;19.144;2023-01-01T15:07:28;33.87;;;19.40;;
77226;SDS011;66234;47.642;19.144;2023-01-01T15:10:35;40.23;;;24.13;;
77226;SDS011;66234;47.642;19.144;2023-01-01T15:13:39;35.85;;;22.60;;
77226;SDS011;66234;47.642;19.144;2023-01-01T15:16:42;33.92;;;18.90;;
77226;SDS011;66234;47.642;19.144;2023-01-01T15:19:45;41.28;;;23.38;;
77226;SDS011;66234;47.642;19.144;2023-01-01T15:23:01;45.33;;;26.90;;
77226;SDS011;66234;47.642;19.144;2023-01-01T15:26:13;35.20;;;21.13;;
77226;SDS011;66234;47.642;19.144;2023-01-01T15:29:43;41.85;;;21.45;;
77226;SDS011;66234;47.642;19.144;2023-01-01T15:32:48;42.40;;;23.95;;
77226;SDS011;66234;47.642;19.144;2023-01-01T15:35:51;44.72;;;23.05;;
77226;SDS011;66234;47.642;19.144;2023-01-01T15:39:01;44.10;;;24.60;;
77226;SDS011;66234;47.642;19.144;2023-01-01T15:42:04;40.47;;;23.10;;
77226;SDS011;66234;47.642;19.144;2023-01-01T15:48:30;50.97;;;28.85;;
77226;SDS011;66234;47.642;19.144;2023-01-01T15:51:38;43.60;;;26.00;;
77226;SDS011;66234;47.642;19.144;2023-01-01T15:54:43;42.93;;;25.57;;
77226;SDS011;66234;47.642;19.144;2023-01-01T15:57:47;48.20;;;25.53;;
77226;SDS011;66234;47.642;19.144;2023-01-01T16:00:55;46.88;;;26.13;;
77226;SDS011;66234;47.642;19.144;2023-01-01T16:07:18;49.65;;;27.95;;
77226;SDS011;66234;47.642;19.144;2023-01-01T16:10:25;47.70;;;29.27;;
77226;SDS011;66234;47.642;19.144;2023-01-01T16:13:28;45.60;;;25.80;;
77226;SDS011;66234;47.642;19.144;2023-01-01T16:16:31;66.22;;;33.88;;
77226;SDS011;66234;47.642;19.144;2023-01-01T16:19:34;67.50;;;32.28;;
77226;SDS011;66234;47.642;19.144;2023-01-01T16:22:36;69.85;;;32.72;;
77226;SDS011;66234;47.642;19.144;2023-01-01T16:25:39;74.10;;;35.93;;
77226;SDS011;66234;47.642;19.144;2023-01-01T16:28:41;60.30;;;29.00;;
77226;SDS011;66234;47.642;19.144;2023-01-01T16:31:44;46.28;;;25.13;;
77226;SDS011;66234;47.642;19.144;2023-01-01T16:34:48;40.63;;;23.48;;
77226;SDS011;66234;47.642;19.144;2023-01-01T16:37:51;41.40;;;22.95;;
77226;SDS011;66234;47.642;19.144;2023-01-01T16:40:53;43.07;;;22.57;;
77226;SDS011;66234;47.642;19.144;2023-01-01T16:43:56;43.87;;;24.27;;
77226;SDS011;66234;47.642;19.144;2023-01-01T16:46:59;43.70;;;23.58;;
77226;SDS011;66234;47.642;19.144;2023-01-01T16:50:01;41.38;;;22.77;;
77226;SDS011;66234;47.642;19.144;2023-01-01T16:53:04;35.67;;;20.15;;
77226;SDS011;66234;47.642;19.144;2023-01-01T16:56:07;41.43;;;22.23;;
77226;SDS011;66234;47.642;19.144;2023-01-01T16:59:12;39.77;;;23.07;;
77226;SDS011;66234;47.642;19.144;2023-01-01T17:02:16;43.20;;;23.73;;
77226;SDS011;66234;47.642;19.144;2023-01-01T17:05:19;40.50;;;21.38;;
77226;SDS011;66234;47.642;19.144;2023-01-01T17:08:21;42.75;;;22.15;;
77226;SDS011;66234;47.642;19.144;2023-01-01T17:11:24;43.33;;;23.57;;
77226;SDS011;66234;47.642;19.144;2023-01-01T17:14:27;40.93;;;22.90;;
77226;SDS011;66234;47.642;19.144;2023-01-01T17:17:29;38.65;;;22.15;;
77226;SDS011;66234;47.642;19.144;2023-01-01T17:20:33;35.17;;;19.15;;
77226;SDS011;66234;47.642;19.144;2023-01-01T17:23:36;35.55;;;19.35;;
77226;SDS011;66234;47.642;19.144;2023-01-01T17:26:43;43.33;;;25.93;;
77226;SDS011;66234;47.642;19.144;2023-01-01T17:29:46;38.50;;;21.00;;
77226;SDS011;66234;47.642;19.144;2023-01-01T17:32:48;41.42;;;21.73;;
77226;SDS011;66234;47.642;19.144;2023-01-01T17:35:51;40.17;;;21.67;;
77226;SDS011;66234;47.642;19.144;2023-01-01T17:38:54;47.22;;;25.60;;
77226;SDS011;66234;47.642;19.144;2023-01-01T17:41:57;51.27;;;26.37;;
77226;SDS011;66234;47.642;19.144;2023-01-01T17:44:59;51.77;;;27.40;;
77226;SDS011;66234;47.642;19.144;2023-01-01T17:48:02;60.50;;;32.22;;
77226;SDS011;66234;47.642;19.144;2023-01-01T17:51:05;49.58;;;27.15;;
77226;SDS011;66234;47.642;19.144;2023-01-01T17:54:08;38.95;;;23.30;;
77226;SDS011;66234;47.642;19.144;2023-01-01T17:57:14;40.63;;;21.47;;
77226;SDS011;66234;47.642;19.144;2023-01-01T18:00:17;38.43;;;21.13;;
77226;SDS011;66234;47.642;19.144;2023-01-01T18:03:19;40.92;;;23.40;;
77226;SDS011;66234;47.642;19.144;2023-01-01T18:06:23;40.80;;;23.92;;
77226;SDS011;66234;47.642;19.144;2023-01-01T18:09:26;43.65;;;23.63;;
77226;SDS011;66234;47.642;19.144;2023-01-01T18:12:29;45.27;;;25.53;;
77226;SDS011;66234;47.642;19.144;2023-01-01T18:15:33;43.03;;;23.30;;
77226;SDS011;66234;47.642;19.144;2023-01-01T18:18:38;36.88;;;22.88;;
77226;SDS011;66234;47.642;19.144;2023-01-01T18:21:41;41.15;;;22.25;;
77226;SDS011;66234;47.642;19.144;2023-01-01T18:24:44;40.80;;;21.48;;
77226;SDS011;66234;47.642;19.144;2023-01-01T18:27:46;38.33;;;22.77;;
77226;SDS011;66234;47.642;19.144;2023-01-01T18:31:04;39.37;;;22.30;;
77226;SDS011;66234;47.642;19.144;2023-01-01T18:34:09;46.83;;;22.67;;
77226;SDS011;66234;47.642;19.144;2023-01-01T18:37:12;41.97;;;23.60;;
77226;SDS011;66234;47.642;19.144;2023-01-01T18:40:18;37.35;;;21.02;;
77226;SDS011;66234;47.642;19.144;2023-01-01T18:43:23;36.03;;;21.40;;
77226;SDS011;66234;47.642;19.144;2023-01-01T18:46:27;33.40;;;19.33;;
77226;SDS011;66234;47.642;19.144;2023-01-01T18:49:33;36.00;;;21.77;;
77226;SDS011;66234;47.642;19.144;2023-01-01T18:52:37;39.03;;;21.98;;
77226;SDS011;66234;47.642;19.144;2023-01-01T18:55:40;36.80;;;20.35;;
77226;SDS011;66234;47.642;19.144;2023-01-01T18:58:43;37.10;;;20.70;;
77226;SDS011;66234;47.642;19.144;2023-01-01T19:01:46;31.40;;;19.47;;
77226;SDS011;66234;47.642;19.144;2023-01-01T19:04:50;36.45;;;21.13;;
77226;SDS011;66234;47.642;19.144;2023-01-01T19:08:09;37.40;;;22.52;;
77226;SDS011;66234;47.642;19.144;2023-01-01T19:11:15;38.55;;;20.85;;
77226;SDS011;66234;47.642;19.144;2023-01-01T19:14:21;52.13;;;28.83;;
77226;SDS011;66234;47.642;19.144;2023-01-01T19:17:29;54.13;;;28.90;;
77226;SDS011;66234;47.642;19.144;2023-01-01T19:20:33;46.05;;;26.00;;
77226;SDS011;66234;47.642;19.144;2023-01-01T19:23:57;43.28;;;24.02;;
77226;SDS011;66234;47.642;19.144;2023-01-01T19:27:33;36.60;;;20.73;;
77226;SDS011;66234;47.642;19.144;2023-01-01T19:30:36;40.47;;;22.83;;
77226;SDS011;66234;47.642;19.144;2023-01-01T19:33:38;40.50;;;22.97;;
77226;SDS011;66234;47.642;19.144;2023-01-01T19:36:47;38.13;;;24.33;;